Upper Allen, Pennsylvania
Current Conditions -  °F | °C
As of 9:56 AM on Sunday 23 Nov 2014 (Local Time) from KCXY Reporting Station
Clear Clear  
Wind Chill: 43°   Ceiling: Unl
Heat Index: 43°   Visibility: 9mi
Dew Point: 24°   Wind: 0mph
Humidity: 47%   Direction: NA
Pressure: 30.21"   Gusts: NA
Location:  40.208°N, 77.0098°W
Report Text: KCXY 231456Z 00000KT 9SM CLR 06/M04 A3021 RMK AO2 SLP236 T00611044 50004
Loading
Personal Weather Stations






























Interactive Weather Map New forecast layout! Learn more

10-Day Weather Forecast

Advertisements
Track Severe Weather on mobile